Curtis Field
KBBD : now visible

Airfield :











YOU CAN JOIN US ON...

 
LOGIN :

Register | Disclaimer

   EN    FR    IT 

 









Legend :    VFR   Marginal VFR   IFR   Intensive IFR   Very Intensive IFR
Visi :
Ceiling :
>= 8 km
>= 3000ft
5 to 8 km
1000 to 3000 ft
1500m to 5 km
500 to 1000 ft
800 to 1500m
200 to 500 ft
< 800m
< 200 ft
Symbols :   Thunderstorms  Fog  Heavy snow  Heavy precipitations  Wind > 20 kt







- Airport Elevation : 1827 ft


KBBD - Curtis Field

CURRENT METAR :
  • 162235Z AUTO VRB05G11KT 10SM CLR 33/14 A2997 RMK AO2

EXPIRED METARs :
  • 162215Z AUTO 12005G11KT 10SM CLR 33/14 A2997 RMK AO2
  • 162155Z AUTO 11008KT 10SM FEW070 SCT110 33/14 A2998 RMK AO2
  • 162135Z AUTO 12004G11KT 10SM FEW070 33/14 A2997 RMK AO2
  • 162115Z AUTO 11007KT 080V150 10SM FEW070 32/14 A2998 RMK AO2
  • 162055Z AUTO 08010KT 10SM FEW075 FEW085 33/14 A2999 RMK AO2
  • 162035Z AUTO 07004G13KT 10SM SCT070 SCT085 33/13 A3000 RMK AO2
  • 162015Z AUTO 10009KT 10SM SCT070 BKN090 33/14 A3001 RMK AO2
  • 161955Z AUTO 09009KT 10SM FEW070 FEW085 33/14 A3002 RMK AO2

TAF KBBD
Valid from the 16 at 18:00 until the 17 at 18:00 UTC


161720Z 1618/1718 09008KT P6SM SCT070
FM170200 11003KT P6SM SKC
No reported NOTAMs for that airfield.



MET'MAP, your aeronautical weather chart ! - Copyright ORBIFLY December 2007 - Disclaimer

ORBIFLY MET'MAP TEAM :

Programming & Development : Alexandra Zaïnal
Concept & Development : Baudouin d'Aumeries
Co-Development & Prog : Marc-Olivier Méhu
Technical & hardware support : Manuel Goepfert

Contact : metmap@orbifly.com




SOURCES & CREDITS :

   NOAA       Earth
Advisory